createdAt,value
2023-05-23T00:00:19.612Z,15.70
2023-05-23T00:02:47.242Z,15.70
2023-05-23T00:05:15.580Z,15.50
2023-05-23T00:07:42.951Z,15.40
2023-05-23T00:10:10.559Z,15.40
2023-05-23T00:12:42.459Z,15.40
2023-05-23T00:15:10.317Z,15.40
2023-05-23T00:17:38.405Z,15.30
2023-05-23T00:20:09.684Z,15.30
2023-05-23T00:22:39.851Z,15.20
2023-05-23T00:25:11.886Z,15.30
2023-05-23T00:27:38.893Z,15.20
2023-05-23T00:30:06.625Z,15.10
2023-05-23T00:32:33.698Z,15.00
2023-05-23T00:35:00.743Z,14.90
2023-05-23T00:37:28.822Z,14.90
2023-05-23T00:39:55.877Z,14.80
2023-05-23T00:42:22.915Z,14.80
2023-05-23T00:44:49.963Z,14.70
2023-05-23T00:47:17.713Z,14.70
2023-05-23T00:49:46.048Z,14.60
2023-05-23T00:52:15.346Z,14.60
2023-05-23T00:54:43.588Z,14.60
2023-05-23T00:57:11.302Z,14.60
2023-05-23T00:59:39.129Z,14.50
2023-05-23T01:02:06.518Z,14.50
2023-05-23T01:04:34.164Z,14.60
2023-05-23T01:07:02.159Z,14.50
2023-05-23T01:09:30.177Z,14.60
2023-05-23T01:12:12.460Z,14.60
2023-05-23T01:14:57.563Z,14.60
2023-05-23T01:17:34.396Z,14.60
2023-05-23T01:20:12.745Z,14.60
2023-05-23T01:23:01.141Z,14.70
2023-05-23T01:25:34.223Z,14.80
2023-05-23T01:28:03.522Z,14.80
2023-05-23T01:30:34.729Z,14.80
2023-05-23T01:33:03.305Z,14.80
2023-05-23T01:35:31.698Z,14.80
2023-05-23T01:37:58.812Z,14.80
2023-05-23T01:40:26.326Z,14.80
2023-05-23T01:42:57.375Z,14.70
2023-05-23T01:45:26.945Z,14.70
2023-05-23T01:47:55.080Z,14.60
2023-05-23T01:50:24.219Z,14.60
2023-05-23T01:52:52.535Z,14.60
2023-05-23T01:55:24.368Z,14.60
2023-05-23T01:57:53.814Z,14.70
2023-05-23T02:00:21.949Z,14.60
2023-05-23T02:02:49.457Z,14.60
2023-05-23T02:05:18.177Z,14.60
2023-05-23T02:07:45.890Z,14.70
2023-05-23T02:10:13.388Z,14.70
2023-05-23T02:12:40.455Z,14.70
2023-05-23T02:15:08.571Z,14.70
2023-05-23T02:17:36.719Z,14.60
2023-05-23T02:20:04.155Z,14.60
2023-05-23T02:22:31.294Z,14.60
2023-05-23T02:24:58.230Z,14.70
2023-05-23T02:27:25.333Z,14.60
2023-05-23T02:29:52.527Z,14.60
2023-05-23T02:32:19.535Z,14.50
2023-05-23T02:34:50.482Z,14.50
2023-05-23T02:37:17.655Z,14.50
2023-05-23T02:39:44.749Z,14.60
2023-05-23T02:42:11.867Z,14.50
2023-05-23T02:44:38.893Z,14.50
2023-05-23T02:47:07.558Z,14.50
2023-05-23T02:49:34.841Z,14.60
2023-05-23T02:52:02.082Z,14.60
2023-05-23T02:54:29.270Z,14.70
2023-05-23T02:56:56.873Z,14.70
2023-05-23T02:59:24.019Z,14.60
2023-05-23T03:01:51.180Z,14.70
2023-05-23T03:04:18.519Z,14.60
2023-05-23T03:06:45.504Z,14.70
2023-05-23T03:09:12.586Z,14.70
2023-05-23T03:11:40.619Z,14.70
2023-05-23T03:14:07.572Z,14.70
2023-05-23T03:16:34.622Z,14.70
2023-05-23T03:19:01.726Z,14.60
2023-05-23T03:21:29.036Z,14.60
2023-05-23T03:23:56.217Z,14.70
2023-05-23T03:26:23.921Z,14.70
2023-05-23T03:28:51.325Z,14.70
2023-05-23T03:31:19.879Z,14.70
2023-05-23T03:33:46.887Z,14.70
2023-05-23T03:36:13.902Z,14.70
2023-05-23T03:38:42.276Z,14.70
2023-05-23T03:41:09.348Z,14.60
2023-05-23T03:43:36.532Z,14.60
2023-05-23T03:46:03.576Z,14.70
2023-05-23T03:48:30.796Z,14.70
2023-05-23T03:50:57.824Z,14.60
2023-05-23T03:53:25.476Z,14.50
2023-05-23T03:55:54.040Z,14.40
2023-05-23T03:58:21.587Z,14.50
2023-05-23T04:00:55.037Z,14.40
2023-05-23T04:03:22.390Z,14.50
2023-05-23T04:05:50.724Z,14.40
2023-05-23T04:08:21.974Z,14.30
2023-05-23T04:10:50.837Z,14.30
2023-05-23T04:13:18.103Z,14.30
2023-05-23T04:15:46.186Z,14.30
2023-05-23T04:18:15.094Z,14.30
2023-05-23T04:20:43.030Z,14.20
2023-05-23T04:23:11.251Z,14.20
2023-05-23T04:25:41.638Z,14.20
2023-05-23T04:28:21.504Z,14.20
2023-05-23T04:30:49.570Z,14.10
2023-05-23T04:33:20.004Z,14.10
2023-05-23T04:35:47.182Z,14.20
2023-05-23T04:38:15.349Z,14.20
2023-05-23T04:40:43.280Z,14.20
2023-05-23T04:43:29.484Z,14.10
2023-05-23T04:46:02.929Z,14.20
2023-05-23T04:48:44.904Z,14.10
2023-05-23T04:51:12.297Z,14.10
2023-05-23T04:53:45.939Z,14.10
2023-05-23T04:56:13.009Z,14.10
2023-05-23T04:58:42.131Z,13.90
2023-05-23T05:01:11.682Z,14.00
2023-05-23T05:03:38.965Z,14.00
2023-05-23T05:06:06.431Z,13.90
2023-05-23T05:08:33.681Z,13.90
2023-05-23T05:11:00.709Z,13.90
2023-05-23T05:13:28.339Z,13.80
2023-05-23T05:15:57.129Z,13.80
2023-05-23T05:18:28.753Z,13.80
2023-05-23T05:20:58.633Z,13.90
2023-05-23T05:23:28.993Z,14.00
2023-05-23T05:25:56.869Z,13.90
2023-05-23T05:28:24.033Z,14.00
2023-05-23T05:30:54.408Z,13.90
2023-05-23T05:33:28.526Z,13.90
2023-05-23T05:36:07.677Z,13.90
2023-05-23T05:38:34.922Z,13.80
2023-05-23T05:41:02.311Z,13.80
2023-05-23T05:43:34.317Z,13.80
2023-05-23T05:46:01.305Z,13.80
2023-05-23T05:48:29.162Z,13.70
2023-05-23T05:51:01.240Z,13.60
2023-05-23T05:53:31.274Z,13.70
2023-05-23T05:56:00.036Z,13.60
2023-05-23T05:58:27.113Z,13.60
2023-05-23T06:01:03.771Z,13.60
2023-05-23T06:03:30.959Z,13.60
2023-05-23T06:05:59.560Z,13.60
2023-05-23T06:08:26.676Z,13.60
2023-05-23T06:10:53.796Z,13.70
2023-05-23T06:13:20.850Z,13.70
2023-05-23T06:15:52.564Z,13.50
2023-05-23T06:18:20.019Z,13.60
2023-05-23T06:20:47.324Z,13.70
2023-05-23T06:23:16.880Z,13.80
2023-05-23T06:25:45.550Z,13.80
2023-05-23T06:28:13.002Z,13.80
2023-05-23T06:30:40.905Z,13.90
2023-05-23T06:33:08.740Z,13.90
2023-05-23T06:35:35.983Z,13.80
2023-05-23T06:38:03.308Z,13.80
2023-05-23T06:40:30.372Z,13.80
2023-05-23T06:42:57.381Z,13.60
2023-05-23T06:45:45.838Z,13.60
2023-05-23T06:48:14.064Z,13.70
2023-05-23T06:50:41.908Z,13.80
2023-05-23T06:53:10.999Z,13.80
2023-05-23T06:55:38.072Z,13.80
2023-05-23T06:58:07.218Z,13.90
2023-05-23T07:00:36.281Z,14.00
2023-05-23T07:03:11.504Z,13.90
2023-05-23T07:05:41.158Z,13.90
2023-05-23T07:08:13.258Z,13.80
2023-05-23T07:10:47.071Z,13.80
2023-05-23T07:13:28.995Z,13.80
2023-05-23T07:15:56.933Z,13.80
2023-05-23T07:18:24.319Z,13.80
2023-05-23T07:20:52.102Z,14.00
2023-05-23T07:23:27.019Z,14.00
2023-05-23T07:28:29.646Z,13.80
2023-05-23T07:30:58.426Z,13.80
2023-05-23T07:33:25.786Z,13.70
2023-05-23T07:35:57.860Z,13.80
2023-05-23T07:38:26.949Z,13.70
2023-05-23T07:41:06.788Z,13.80
2023-05-23T07:43:38.556Z,13.90
2023-05-23T07:46:06.099Z,13.80
2023-05-23T07:48:33.859Z,13.80
2023-05-23T07:51:01.278Z,13.90
2023-05-23T07:53:29.267Z,13.80
2023-05-23T07:55:56.892Z,13.80
2023-05-23T07:58:27.304Z,13.90
2023-05-23T08:00:54.474Z,13.80
2023-05-23T08:03:47.603Z,13.90
2023-05-23T08:06:25.395Z,13.90
2023-05-23T08:08:52.661Z,13.90
2023-05-23T08:11:19.771Z,14.00
2023-05-23T08:13:50.814Z,14.00
2023-05-23T08:16:47.238Z,13.90
2023-05-23T08:19:19.916Z,13.90
2023-05-23T08:21:47.349Z,14.00
2023-05-23T08:24:15.251Z,14.00
2023-05-23T08:26:44.023Z,14.20
2023-05-23T08:29:13.718Z,14.30
2023-05-23T08:31:42.044Z,14.40
2023-05-23T08:34:11.008Z,14.40
2023-05-23T08:36:40.201Z,14.50
2023-05-23T08:39:11.927Z,14.60
2023-05-23T08:41:54.663Z,14.60
2023-05-23T08:44:21.814Z,14.60
2023-05-23T08:46:54.220Z,14.40
2023-05-23T08:49:45.301Z,14.60
2023-05-23T08:52:14.107Z,14.60
2023-05-23T08:54:46.270Z,14.80
2023-05-23T08:57:15.043Z,15.10
2023-05-23T08:59:49.097Z,15.20
2023-05-23T09:02:17.041Z,15.40
2023-05-23T09:04:44.884Z,15.30
2023-05-23T09:07:19.111Z,15.30
2023-05-23T09:09:49.779Z,15.40
2023-05-23T09:12:17.796Z,15.20
2023-05-23T09:14:47.237Z,15.20
2023-05-23T09:17:21.476Z,15.50
2023-05-23T09:19:48.989Z,15.70
2023-05-23T09:22:27.481Z,15.60
2023-05-23T09:25:07.857Z,15.60
2023-05-23T09:27:36.056Z,15.70
2023-05-23T09:30:21.442Z,15.50
2023-05-23T09:33:03.953Z,15.30
2023-05-23T09:35:33.436Z,15.50
2023-05-23T09:38:00.707Z,15.70
2023-05-23T09:40:33.281Z,15.90
2023-05-23T09:43:05.495Z,15.50
2023-05-23T09:45:33.668Z,15.50
2023-05-23T09:48:02.064Z,15.90
2023-05-23T09:50:33.590Z,16.10
2023-05-23T09:53:01.793Z,16.10
2023-05-23T09:55:28.894Z,16.40
2023-05-23T09:57:58.815Z,16.20
2023-05-23T10:00:26.129Z,16.00
2023-05-23T10:03:08.703Z,16.20
2023-05-23T10:05:46.690Z,17.00
2023-05-23T10:08:36.588Z,17.30
2023-05-23T10:11:16.769Z,17.30
2023-05-23T10:13:45.918Z,16.90
2023-05-23T10:16:22.535Z,16.80
2023-05-23T10:18:56.630Z,16.80
2023-05-23T10:21:36.209Z,16.70
2023-05-23T10:24:07.520Z,16.50
2023-05-23T10:26:35.114Z,16.60
2023-05-23T10:29:02.907Z,16.70
2023-05-23T10:31:30.235Z,16.70
2023-05-23T10:34:21.075Z,16.70
2023-05-23T10:37:07.449Z,16.60
2023-05-23T10:40:26.298Z,16.40
2023-05-23T10:43:19.178Z,16.50
2023-05-23T10:45:49.829Z,16.60
2023-05-23T10:48:28.981Z,16.70
2023-05-23T10:51:22.662Z,17.00
2023-05-23T10:53:54.815Z,17.20
2023-05-23T10:56:24.011Z,17.20
2023-05-23T10:58:55.325Z,17.30
2023-05-23T11:01:23.867Z,17.70
2023-05-23T11:03:54.837Z,17.70
2023-05-23T11:06:33.306Z,17.70
2023-05-23T11:09:11.998Z,17.70
2023-05-23T11:12:07.296Z,17.80
2023-05-23T11:14:54.465Z,17.70
2023-05-23T11:17:33.925Z,17.00
2023-05-23T11:20:09.807Z,17.20
2023-05-23T11:22:37.216Z,17.60
2023-05-23T11:25:09.320Z,18.00
2023-05-23T11:27:38.989Z,17.80
2023-05-23T11:30:09.447Z,18.10
2023-05-23T11:32:37.732Z,18.40
2023-05-23T11:35:09.980Z,18.10
2023-05-23T11:37:39.792Z,18.00
2023-05-23T11:40:35.989Z,17.60
2023-05-23T11:43:05.510Z,17.70
2023-05-23T11:45:34.082Z,18.00
2023-05-23T11:48:16.589Z,17.90
2023-05-23T11:50:45.123Z,18.40
2023-05-23T11:53:13.068Z,18.50
2023-05-23T11:55:41.902Z,18.30
2023-05-23T11:58:09.742Z,17.70
2023-05-23T12:00:46.308Z,18.00
2023-05-23T12:03:13.451Z,18.20
2023-05-23T12:05:43.899Z,18.60
2023-05-23T12:08:14.385Z,18.70
2023-05-23T12:10:53.557Z,18.40
2023-05-23T12:13:23.876Z,17.90
2023-05-23T12:15:55.046Z,17.80
2023-05-23T12:18:22.918Z,17.80
2023-05-23T12:20:51.748Z,18.00
2023-05-23T12:23:23.131Z,17.90
2023-05-23T12:25:52.364Z,17.70
2023-05-23T12:28:20.567Z,17.50
2023-05-23T12:30:48.734Z,17.30
2023-05-23T12:33:18.414Z,17.60
2023-05-23T12:35:46.149Z,17.70
2023-05-23T12:38:16.551Z,17.70
2023-05-23T12:40:43.982Z,18.00
2023-05-23T12:43:11.364Z,18.50
2023-05-23T12:45:39.095Z,19.00
2023-05-23T12:48:07.554Z,18.80
2023-05-23T12:50:35.650Z,18.50
2023-05-23T12:53:02.742Z,18.20
2023-05-23T12:55:29.901Z,18.20
2023-05-23T12:57:56.978Z,18.40
2023-05-23T13:00:24.084Z,18.80
2023-05-23T13:02:51.392Z,18.60
2023-05-23T13:05:21.845Z,18.80
2023-05-23T13:07:48.902Z,19.20
2023-05-23T13:10:16.265Z,19.70
2023-05-23T13:12:43.384Z,19.80
2023-05-23T13:15:11.017Z,19.70
2023-05-23T13:17:38.209Z,19.70
2023-05-23T13:20:05.746Z,19.00
2023-05-23T13:22:33.388Z,18.80
2023-05-23T13:25:00.623Z,19.00
2023-05-23T13:27:27.604Z,19.20
2023-05-23T13:29:54.857Z,19.40
2023-05-23T13:32:21.990Z,19.60
2023-05-23T13:34:49.163Z,19.10
2023-05-23T13:37:16.316Z,18.60
2023-05-23T13:39:43.499Z,18.80
2023-05-23T13:42:11.047Z,18.70
2023-05-23T13:44:38.171Z,18.80
2023-05-23T13:47:14.889Z,18.90
2023-05-23T13:49:43.323Z,19.30
2023-05-23T13:52:10.659Z,18.80
2023-05-23T13:54:37.665Z,19.00
2023-05-23T13:57:05.645Z,19.30
2023-05-23T13:59:32.631Z,19.20
2023-05-23T14:02:00.017Z,19.40
2023-05-23T14:04:27.110Z,19.40
2023-05-23T14:06:54.171Z,19.10
2023-05-23T14:09:23.198Z,18.80
2023-05-23T14:11:52.309Z,18.70
2023-05-23T14:14:19.420Z,18.70
2023-05-23T14:16:46.742Z,18.60
2023-05-23T14:19:13.918Z,18.30
2023-05-23T14:21:44.022Z,18.70
2023-05-23T14:24:12.180Z,18.90
2023-05-23T14:26:39.417Z,18.50
2023-05-23T14:29:06.711Z,18.60
2023-05-23T14:31:33.819Z,18.10
2023-05-23T14:34:01.012Z,18.30
2023-05-23T14:36:28.765Z,19.00
2023-05-23T14:38:56.021Z,19.20
2023-05-23T14:41:23.130Z,19.10
2023-05-23T14:43:50.274Z,18.80
2023-05-23T14:46:18.560Z,18.90
2023-05-23T14:48:45.781Z,18.90
2023-05-23T14:51:23.590Z,19.20
2023-05-23T14:53:57.786Z,19.10
2023-05-23T14:56:24.784Z,19.30
2023-05-23T14:58:52.267Z,19.40
2023-05-23T15:01:19.404Z,19.30
2023-05-23T15:03:47.029Z,19.90
2023-05-23T15:06:14.353Z,19.00
2023-05-23T15:08:41.455Z,18.40
2023-05-23T15:11:10.347Z,18.50
2023-05-23T15:13:37.522Z,19.10
2023-05-23T15:16:04.834Z,19.10
2023-05-23T15:18:39.593Z,18.80
2023-05-23T15:21:08.739Z,18.60
2023-05-23T15:23:35.916Z,18.30
2023-05-23T15:26:03.221Z,17.70
2023-05-23T15:28:30.261Z,17.80
2023-05-23T15:30:59.066Z,18.00
2023-05-23T15:33:26.246Z,18.00
2023-05-23T15:35:53.866Z,18.60
2023-05-23T15:38:20.871Z,18.50
2023-05-23T15:40:48.920Z,18.60
2023-05-23T15:43:16.376Z,18.60
2023-05-23T15:45:43.631Z,18.30
2023-05-23T15:48:11.300Z,18.10
2023-05-23T15:50:38.519Z,17.80
2023-05-23T15:53:05.894Z,17.70
2023-05-23T15:55:33.029Z,17.50
2023-05-23T15:58:00.328Z,17.60
2023-05-23T16:00:27.933Z,17.40
2023-05-23T16:02:55.030Z,17.50
2023-05-23T16:05:22.121Z,17.80
2023-05-23T16:07:49.437Z,17.80
2023-05-23T16:10:16.486Z,17.70
2023-05-23T16:12:43.536Z,17.70
2023-05-23T16:15:10.924Z,17.60
2023-05-23T16:17:37.911Z,17.50
2023-05-23T16:20:05.337Z,17.30
2023-05-23T16:22:32.369Z,17.20
2023-05-23T16:25:00.705Z,17.50
2023-05-23T16:27:27.990Z,17.20
2023-05-23T16:29:54.976Z,17.30
2023-05-23T16:32:22.221Z,17.40
2023-05-23T16:34:53.462Z,17.60
2023-05-23T16:37:24.209Z,17.60
2023-05-23T16:39:51.255Z,17.90
2023-05-23T16:42:18.395Z,17.70
2023-05-23T16:44:45.995Z,17.00
2023-05-23T16:47:13.170Z,16.30
2023-05-23T16:49:40.254Z,16.50
2023-05-23T16:52:07.375Z,16.10
2023-05-23T16:54:34.423Z,16.30
2023-05-23T16:57:02.262Z,16.60
2023-05-23T16:59:30.065Z,16.60
2023-05-23T17:01:57.785Z,16.70
2023-05-23T17:04:25.010Z,16.70
2023-05-23T17:06:52.004Z,16.80
2023-05-23T17:09:21.336Z,16.70
2023-05-23T17:11:49.324Z,16.90
2023-05-23T17:14:16.330Z,16.90
2023-05-23T17:16:43.482Z,16.70
2023-05-23T17:19:10.612Z,16.40
2023-05-23T17:21:37.809Z,16.50
2023-05-23T17:24:04.973Z,16.50
2023-05-23T17:26:32.257Z,16.00
2023-05-23T17:28:59.488Z,15.90
2023-05-23T17:31:28.988Z,16.00
2023-05-23T17:33:58.092Z,16.10
2023-05-23T17:36:25.353Z,16.10
2023-05-23T17:38:53.833Z,15.90
2023-05-23T17:41:23.653Z,15.90
2023-05-23T17:43:52.110Z,15.90
2023-05-23T17:46:19.782Z,16.00
2023-05-23T17:48:48.204Z,15.90
2023-05-23T17:51:16.271Z,15.60
2023-05-23T17:53:43.620Z,15.70
2023-05-23T17:56:11.031Z,15.60
2023-05-23T17:58:41.693Z,15.60
2023-05-23T18:01:12.011Z,15.70
2023-05-23T18:03:39.317Z,15.60
2023-05-23T18:06:06.966Z,15.60
2023-05-23T18:08:34.159Z,15.60
2023-05-23T18:11:02.635Z,15.40
2023-05-23T18:13:29.919Z,15.40
2023-05-23T18:15:57.096Z,15.40
2023-05-23T18:18:25.873Z,15.40
2023-05-23T18:21:00.355Z,15.30
2023-05-23T18:23:28.438Z,15.30
2023-05-23T18:25:57.831Z,15.10
2023-05-23T18:28:25.236Z,15.30
2023-05-23T18:30:52.505Z,15.20
2023-05-23T18:33:20.819Z,15.00
2023-05-23T18:35:48.220Z,15.10
2023-05-23T18:38:15.826Z,15.00
2023-05-23T18:40:43.438Z,14.80
2023-05-23T18:43:11.925Z,14.80
2023-05-23T18:45:39.294Z,14.70
2023-05-23T18:48:06.998Z,14.70
2023-05-23T18:50:34.526Z,14.70
2023-05-23T18:53:01.804Z,14.60
2023-05-23T18:55:33.536Z,14.40
2023-05-23T18:58:00.616Z,14.60
2023-05-23T19:00:27.912Z,14.40
2023-05-23T19:02:55.207Z,14.30
2023-05-23T19:05:22.628Z,14.10
2023-05-23T19:07:50.047Z,14.00
2023-05-23T19:10:17.259Z,14.10
2023-05-23T19:12:44.284Z,14.20
2023-05-23T19:15:13.995Z,14.10
2023-05-23T19:17:41.835Z,14.10
2023-05-23T19:20:10.425Z,14.00
2023-05-23T19:22:50.439Z,13.80
2023-05-23T19:25:21.802Z,13.90
2023-05-23T19:27:49.101Z,13.90
2023-05-23T19:30:16.885Z,13.90
2023-05-23T19:32:44.228Z,14.00
2023-05-23T19:35:12.793Z,13.80
2023-05-23T19:37:43.744Z,13.80
2023-05-23T19:40:11.558Z,13.70
2023-05-23T19:42:38.766Z,13.60
2023-05-23T19:45:07.823Z,13.60
2023-05-23T19:47:35.446Z,13.60
2023-05-23T19:50:05.265Z,13.40
2023-05-23T19:52:32.452Z,13.50
2023-05-23T19:55:01.253Z,13.50
2023-05-23T19:57:30.966Z,13.30
2023-05-23T19:59:58.894Z,13.40
2023-05-23T20:02:26.730Z,13.40
2023-05-23T20:04:54.107Z,13.30
2023-05-23T20:07:25.523Z,13.40
2023-05-23T20:09:52.887Z,13.30
2023-05-23T20:12:20.540Z,13.40
2023-05-23T20:14:48.020Z,13.30
2023-05-23T20:17:17.209Z,13.10
2023-05-23T20:19:44.608Z,13.20
2023-05-23T20:22:12.073Z,13.10
2023-05-23T20:24:39.366Z,13.00
2023-05-23T20:27:09.100Z,12.90
2023-05-23T20:29:36.685Z,12.90
2023-05-23T20:32:03.946Z,12.80
2023-05-23T20:34:31.808Z,12.80
2023-05-23T20:37:02.510Z,12.80
2023-05-23T20:39:29.971Z,12.70
2023-05-23T20:41:58.368Z,12.80
2023-05-23T20:44:29.457Z,12.70
2023-05-23T20:46:57.760Z,12.60
2023-05-23T20:49:25.059Z,12.50
2023-05-23T20:51:54.806Z,12.50
2023-05-23T20:54:24.826Z,12.60
2023-05-23T20:56:55.065Z,12.50
2023-05-23T20:59:22.370Z,12.50
2023-05-23T21:01:51.860Z,12.40
2023-05-23T21:04:19.189Z,12.30
2023-05-23T21:06:47.851Z,12.40
2023-05-23T21:09:16.719Z,12.30
2023-05-23T21:11:44.113Z,12.20
2023-05-23T21:14:11.257Z,12.30
2023-05-23T21:16:38.488Z,12.10
2023-05-23T21:19:07.825Z,12.20
2023-05-23T21:21:35.100Z,12.20
2023-05-23T21:24:02.342Z,12.10
2023-05-23T21:26:29.696Z,12.30
2023-05-23T21:28:56.966Z,12.10
2023-05-23T21:31:33.096Z,12.00
2023-05-23T21:34:18.366Z,12.00
2023-05-23T21:36:49.119Z,12.00
2023-05-23T21:39:16.073Z,12.00
2023-05-23T21:41:43.140Z,11.90
2023-05-23T21:44:10.156Z,11.90
2023-05-23T21:46:37.352Z,11.80
2023-05-23T21:49:04.536Z,11.80
2023-05-23T21:51:31.560Z,11.80
2023-05-23T21:53:58.480Z,11.80
2023-05-23T21:56:26.308Z,11.70
2023-05-23T21:58:53.361Z,11.70
2023-05-23T22:01:20.464Z,11.70
2023-05-23T22:03:47.639Z,11.60
2023-05-23T22:06:14.813Z,11.60
2023-05-23T22:08:42.089Z,11.60
2023-05-23T22:11:10.453Z,11.60
2023-05-23T22:13:37.486Z,11.50
2023-05-23T22:16:05.441Z,11.40
2023-05-23T22:21:07.622Z,11.40
2023-05-23T22:23:34.679Z,11.30
2023-05-23T22:26:01.755Z,11.50
2023-05-23T22:28:29.025Z,11.30
2023-05-23T22:30:56.632Z,11.30
2023-05-23T22:33:23.582Z,11.30
2023-05-23T22:35:50.839Z,11.20
2023-05-23T22:38:18.589Z,11.20
2023-05-23T22:40:45.585Z,11.30
2023-05-23T22:43:12.683Z,11.20
2023-05-23T22:45:42.975Z,11.10
2023-05-23T22:48:11.371Z,11.10
2023-05-23T22:50:42.081Z,11.00
2023-05-23T22:53:09.238Z,11.00
2023-05-23T22:55:36.197Z,11.00
2023-05-23T22:58:03.502Z,11.00
2023-05-23T23:00:30.574Z,11.10
2023-05-23T23:02:57.621Z,11.00
2023-05-23T23:05:24.763Z,10.90
2023-05-23T23:07:52.129Z,10.90
2023-05-23T23:10:19.447Z,10.90
2023-05-23T23:12:46.597Z,10.80
2023-05-23T23:15:13.622Z,10.90
2023-05-23T23:17:41.883Z,10.80
2023-05-23T23:20:10.315Z,10.70
2023-05-23T23:22:37.411Z,10.70
2023-05-23T23:25:11.649Z,10.80
2023-05-23T23:27:39.335Z,10.70
2023-05-23T23:30:07.385Z,10.70
2023-05-23T23:32:34.572Z,10.70
2023-05-23T23:35:01.892Z,10.60
2023-05-23T23:37:28.983Z,10.60
2023-05-23T23:39:56.102Z,10.60
2023-05-23T23:42:23.134Z,10.60
2023-05-23T23:44:50.093Z,10.50
2023-05-23T23:47:17.103Z,10.50
2023-05-23T23:49:44.198Z,10.60
2023-05-23T23:52:11.292Z,10.50
2023-05-23T23:54:38.237Z,10.50
2023-05-23T23:57:06.713Z,10.50
2023-05-23T23:59:33.716Z,10.40
